sensor_id;sensor_type;location;lat;lon;timestamp;P1;durP1;ratioP1;P2;durP2;ratioP2
61397;SDS011;47267;48.130;-2.040;2023-03-14T00:01:22;2.35;;;0.93;;
61397;SDS011;47267;48.130;-2.040;2023-03-14T00:03:48;4.55;;;1.30;;
61397;SDS011;47267;48.130;-2.040;2023-03-14T00:06:15;4.22;;;1.00;;
61397;SDS011;47267;48.130;-2.040;2023-03-14T00:08:42;3.22;;;1.00;;
61397;SDS011;47267;48.130;-2.040;2023-03-14T00:11:11;2.90;;;0.98;;
61397;SDS011;47267;48.130;-2.040;2023-03-14T00:13:39;3.22;;;1.23;;
61397;SDS011;47267;48.130;-2.040;2023-03-14T00:16:06;3.80;;;0.95;;
61397;SDS011;47267;48.130;-2.040;2023-03-14T00:18:34;3.25;;;1.10;;
61397;SDS011;47267;48.130;-2.040;2023-03-14T00:21:00;2.97;;;0.98;;
61397;SDS011;47267;48.130;-2.040;2023-03-14T00:23:27;2.90;;;0.80;;
61397;SDS011;47267;48.130;-2.040;2023-03-14T00:25:58;2.88;;;1.20;;
61397;SDS011;47267;48.130;-2.040;2023-03-14T00:28:25;3.38;;;1.10;;
61397;SDS011;47267;48.130;-2.040;2023-03-14T00:30:51;2.10;;;0.82;;
61397;SDS011;47267;48.130;-2.040;2023-03-14T00:33:17;3.20;;;1.05;;
61397;SDS011;47267;48.130;-2.040;2023-03-14T00:35:42;2.30;;;0.93;;
61397;SDS011;47267;48.130;-2.040;2023-03-14T00:38:08;2.85;;;0.82;;
61397;SDS011;47267;48.130;-2.040;2023-03-14T00:40:34;2.40;;;0.85;;
61397;SDS011;47267;48.130;-2.040;2023-03-14T00:43:03;3.60;;;0.90;;
61397;SDS011;47267;48.130;-2.040;2023-03-14T00:45:29;2.70;;;0.90;;
61397;SDS011;47267;48.130;-2.040;2023-03-14T00:47:55;2.22;;;0.75;;
61397;SDS011;47267;48.130;-2.040;2023-03-14T00:50:20;2.85;;;0.98;;
61397;SDS011;47267;48.130;-2.040;2023-03-14T00:52:46;3.35;;;0.95;;
61397;SDS011;47267;48.130;-2.040;2023-03-14T00:55:13;2.83;;;1.00;;
61397;SDS011;47267;48.130;-2.040;2023-03-14T00:57:39;2.20;;;0.80;;
61397;SDS011;47267;48.130;-2.040;2023-03-14T01:00:05;2.22;;;0.80;;
61397;SDS011;47267;48.130;-2.040;2023-03-14T01:02:33;1.30;;;0.55;;
61397;SDS011;47267;48.130;-2.040;2023-03-14T01:04:58;2.30;;;0.80;;
61397;SDS011;47267;48.130;-2.040;2023-03-14T01:07:24;1.52;;;0.68;;
61397;SDS011;47267;48.130;-2.040;2023-03-14T01:09:51;4.07;;;0.90;;
61397;SDS011;47267;48.130;-2.040;2023-03-14T01:12:17;2.80;;;0.90;;
61397;SDS011;47267;48.130;-2.040;2023-03-14T01:14:43;2.08;;;0.70;;
61397;SDS011;47267;48.130;-2.040;2023-03-14T01:17:09;1.50;;;0.68;;
61397;SDS011;47267;48.130;-2.040;2023-03-14T01:19:34;1.75;;;0.77;;
61397;SDS011;47267;48.130;-2.040;2023-03-14T01:22:00;2.38;;;0.73;;
61397;SDS011;47267;48.130;-2.040;2023-03-14T01:24:26;1.92;;;0.85;;
61397;SDS011;47267;48.130;-2.040;2023-03-14T01:26:51;2.53;;;0.80;;
61397;SDS011;47267;48.130;-2.040;2023-03-14T01:29:17;1.80;;;0.70;;
61397;SDS011;47267;48.130;-2.040;2023-03-14T01:31:43;1.60;;;0.70;;
61397;SDS011;47267;48.130;-2.040;2023-03-14T01:34:08;2.85;;;0.80;;
61397;SDS011;47267;48.130;-2.040;2023-03-14T01:36:34;2.83;;;0.80;;
61397;SDS011;47267;48.130;-2.040;2023-03-14T01:39:00;2.35;;;0.88;;
61397;SDS011;47267;48.130;-2.040;2023-03-14T01:41:26;3.35;;;0.70;;
61397;SDS011;47267;48.130;-2.040;2023-03-14T01:43:52;2.08;;;0.93;;
61397;SDS011;47267;48.130;-2.040;2023-03-14T01:46:22;1.90;;;0.63;;
61397;SDS011;47267;48.130;-2.040;2023-03-14T01:51:49;1.98;;;0.70;;
61397;SDS011;47267;48.130;-2.040;2023-03-14T01:54:25;2.05;;;0.88;;
61397;SDS011;47267;48.130;-2.040;2023-03-14T01:57:05;2.60;;;0.60;;
61397;SDS011;47267;48.130;-2.040;2023-03-14T01:59:39;2.22;;;0.70;;
61397;SDS011;47267;48.130;-2.040;2023-03-14T02:02:09;1.92;;;0.60;;
61397;SDS011;47267;48.130;-2.040;2023-03-14T02:04:36;3.08;;;1.20;;
61397;SDS011;47267;48.130;-2.040;2023-03-14T02:10:01;2.15;;;0.73;;
61397;SDS011;47267;48.130;-2.040;2023-03-14T02:12:28;2.00;;;0.70;;
61397;SDS011;47267;48.130;-2.040;2023-03-14T02:14:54;1.92;;;0.90;;
61397;SDS011;47267;48.130;-2.040;2023-03-14T02:17:20;1.73;;;0.60;;
61397;SDS011;47267;48.130;-2.040;2023-03-14T02:19:54;2.65;;;0.90;;
61397;SDS011;47267;48.130;-2.040;2023-03-14T02:22:22;3.03;;;0.80;;
61397;SDS011;47267;48.130;-2.040;2023-03-14T02:27:41;2.58;;;0.73;;
61397;SDS011;47267;48.130;-2.040;2023-03-14T02:30:10;2.20;;;0.60;;
61397;SDS011;47267;48.130;-2.040;2023-03-14T02:32:39;2.20;;;0.93;;
61397;SDS011;47267;48.130;-2.040;2023-03-14T02:35:11;2.10;;;0.53;;
61397;SDS011;47267;48.130;-2.040;2023-03-14T02:37:49;1.98;;;0.90;;
61397;SDS011;47267;48.130;-2.040;2023-03-14T02:40:20;4.10;;;0.75;;
61397;SDS011;47267;48.130;-2.040;2023-03-14T02:42:46;3.10;;;0.75;;
61397;SDS011;47267;48.130;-2.040;2023-03-14T02:47:39;1.92;;;0.80;;
61397;SDS011;47267;48.130;-2.040;2023-03-14T02:50:16;1.98;;;0.63;;
61397;SDS011;47267;48.130;-2.040;2023-03-14T02:52:45;2.40;;;0.90;;
61397;SDS011;47267;48.130;-2.040;2023-03-14T02:55:11;3.00;;;0.80;;
61397;SDS011;47267;48.130;-2.040;2023-03-14T02:57:38;1.13;;;0.68;;
61397;SDS011;47267;48.130;-2.040;2023-03-14T03:00:04;2.85;;;0.98;;
61397;SDS011;47267;48.130;-2.040;2023-03-14T03:02:30;2.22;;;0.65;;
61397;SDS011;47267;48.130;-2.040;2023-03-14T03:04:56;1.60;;;0.60;;
61397;SDS011;47267;48.130;-2.040;2023-03-14T03:07:22;3.20;;;1.20;;
61397;SDS011;47267;48.130;-2.040;2023-03-14T03:09:47;3.10;;;0.90;;
61397;SDS011;47267;48.130;-2.040;2023-03-14T03:12:13;2.88;;;0.80;;
61397;SDS011;47267;48.130;-2.040;2023-03-14T03:14:39;2.88;;;0.70;;
61397;SDS011;47267;48.130;-2.040;2023-03-14T03:17:05;2.22;;;0.70;;
61397;SDS011;47267;48.130;-2.040;2023-03-14T03:19:31;2.25;;;0.68;;
61397;SDS011;47267;48.130;-2.040;2023-03-14T03:21:57;2.13;;;0.73;;
61397;SDS011;47267;48.130;-2.040;2023-03-14T03:24:24;3.88;;;0.63;;
61397;SDS011;47267;48.130;-2.040;2023-03-14T03:26:50;2.70;;;0.90;;
61397;SDS011;47267;48.130;-2.040;2023-03-14T03:29:16;2.90;;;0.70;;
61397;SDS011;47267;48.130;-2.040;2023-03-14T03:31:42;2.53;;;0.73;;
61397;SDS011;47267;48.130;-2.040;2023-03-14T03:34:10;3.13;;;0.70;;
61397;SDS011;47267;48.130;-2.040;2023-03-14T03:36:37;1.80;;;1.00;;
61397;SDS011;47267;48.130;-2.040;2023-03-14T03:39:03;4.72;;;0.90;;
61397;SDS011;47267;48.130;-2.040;2023-03-14T03:41:29;2.67;;;0.90;;
61397;SDS011;47267;48.130;-2.040;2023-03-14T03:43:55;2.35;;;0.73;;
61397;SDS011;47267;48.130;-2.040;2023-03-14T03:46:21;1.58;;;0.60;;
61397;SDS011;47267;48.130;-2.040;2023-03-14T03:48:47;2.42;;;0.70;;
61397;SDS011;47267;48.130;-2.040;2023-03-14T03:51:13;3.80;;;1.00;;
61397;SDS011;47267;48.130;-2.040;2023-03-14T03:53:40;2.15;;;0.73;;
61397;SDS011;47267;48.130;-2.040;2023-03-14T03:56:07;2.65;;;0.70;;
61397;SDS011;47267;48.130;-2.040;2023-03-14T03:58:33;2.40;;;0.70;;
61397;SDS011;47267;48.130;-2.040;2023-03-14T04:00:59;3.70;;;0.85;;
61397;SDS011;47267;48.130;-2.040;2023-03-14T04:03:25;1.48;;;0.63;;
61397;SDS011;47267;48.130;-2.040;2023-03-14T04:05:58;2.10;;;0.73;;
61397;SDS011;47267;48.130;-2.040;2023-03-14T04:08:28;2.05;;;0.60;;
61397;SDS011;47267;48.130;-2.040;2023-03-14T04:10:57;2.78;;;0.75;;
61397;SDS011;47267;48.130;-2.040;2023-03-14T04:13:24;2.40;;;1.00;;
61397;SDS011;47267;48.130;-2.040;2023-03-14T04:15:50;2.85;;;0.70;;
61397;SDS011;47267;48.130;-2.040;2023-03-14T04:18:17;2.33;;;0.82;;
61397;SDS011;47267;48.130;-2.040;2023-03-14T04:20:42;2.22;;;0.77;;
61397;SDS011;47267;48.130;-2.040;2023-03-14T04:23:08;3.50;;;0.98;;
61397;SDS011;47267;48.130;-2.040;2023-03-14T04:25:34;2.42;;;0.90;;
61397;SDS011;47267;48.130;-2.040;2023-03-14T04:27:59;2.42;;;0.90;;
61397;SDS011;47267;48.130;-2.040;2023-03-14T04:30:26;3.30;;;0.73;;
61397;SDS011;47267;48.130;-2.040;2023-03-14T04:32:51;3.50;;;0.90;;
61397;SDS011;47267;48.130;-2.040;2023-03-14T04:35:17;3.00;;;0.80;;
61397;SDS011;47267;48.130;-2.040;2023-03-14T04:37:43;2.40;;;0.73;;
61397;SDS011;47267;48.130;-2.040;2023-03-14T04:40:09;2.95;;;0.98;;
61397;SDS011;47267;48.130;-2.040;2023-03-14T04:42:35;2.72;;;0.77;;
61397;SDS011;47267;48.130;-2.040;2023-03-14T04:45:01;2.45;;;0.90;;
61397;SDS011;47267;48.130;-2.040;2023-03-14T04:47:27;1.42;;;0.60;;
61397;SDS011;47267;48.130;-2.040;2023-03-14T04:49:53;2.40;;;0.85;;
61397;SDS011;47267;48.130;-2.040;2023-03-14T04:52:19;2.20;;;0.70;;
61397;SDS011;47267;48.130;-2.040;2023-03-14T04:54:45;1.38;;;0.70;;
61397;SDS011;47267;48.130;-2.040;2023-03-14T04:57:11;2.65;;;0.70;;
61397;SDS011;47267;48.130;-2.040;2023-03-14T04:59:36;2.58;;;0.90;;
61397;SDS011;47267;48.130;-2.040;2023-03-14T05:02:02;1.10;;;0.60;;
61397;SDS011;47267;48.130;-2.040;2023-03-14T05:04:28;2.50;;;0.68;;
61397;SDS011;47267;48.130;-2.040;2023-03-14T05:06:54;2.38;;;0.90;;
61397;SDS011;47267;48.130;-2.040;2023-03-14T05:09:20;3.28;;;0.60;;
61397;SDS011;47267;48.130;-2.040;2023-03-14T05:11:45;3.30;;;1.00;;
61397;SDS011;47267;48.130;-2.040;2023-03-14T05:14:11;3.15;;;0.93;;
61397;SDS011;47267;48.130;-2.040;2023-03-14T05:16:37;3.10;;;0.65;;
61397;SDS011;47267;48.130;-2.040;2023-03-14T05:19:02;3.45;;;1.13;;
61397;SDS011;47267;48.130;-2.040;2023-03-14T05:21:28;3.08;;;1.00;;
61397;SDS011;47267;48.130;-2.040;2023-03-14T05:23:54;4.22;;;1.27;;
61397;SDS011;47267;48.130;-2.040;2023-03-14T05:26:19;1.92;;;0.68;;
61397;SDS011;47267;48.130;-2.040;2023-03-14T05:28:45;3.28;;;0.85;;
61397;SDS011;47267;48.130;-2.040;2023-03-14T05:31:11;4.03;;;1.10;;
61397;SDS011;47267;48.130;-2.040;2023-03-14T05:33:37;6.10;;;1.13;;
61397;SDS011;47267;48.130;-2.040;2023-03-14T05:36:03;3.75;;;0.90;;
61397;SDS011;47267;48.130;-2.040;2023-03-14T05:38:28;2.70;;;0.77;;
61397;SDS011;47267;48.130;-2.040;2023-03-14T05:40:54;2.30;;;0.90;;
61397;SDS011;47267;48.130;-2.040;2023-03-14T05:43:20;2.78;;;0.85;;
61397;SDS011;47267;48.130;-2.040;2023-03-14T05:45:45;4.82;;;1.52;;
61397;SDS011;47267;48.130;-2.040;2023-03-14T05:48:11;2.72;;;0.80;;
61397;SDS011;47267;48.130;-2.040;2023-03-14T05:50:37;3.65;;;0.95;;
61397;SDS011;47267;48.130;-2.040;2023-03-14T05:53:02;5.13;;;1.58;;
61397;SDS011;47267;48.130;-2.040;2023-03-14T05:55:28;4.57;;;1.08;;
61397;SDS011;47267;48.130;-2.040;2023-03-14T05:57:54;3.53;;;1.10;;
61397;SDS011;47267;48.130;-2.040;2023-03-14T06:00:20;2.28;;;0.77;;
61397;SDS011;47267;48.130;-2.040;2023-03-14T06:02:46;2.95;;;1.00;;
61397;SDS011;47267;48.130;-2.040;2023-03-14T06:05:12;3.60;;;1.00;;
61397;SDS011;47267;48.130;-2.040;2023-03-14T06:07:38;3.42;;;1.00;;
61397;SDS011;47267;48.130;-2.040;2023-03-14T06:10:04;3.33;;;1.10;;
61397;SDS011;47267;48.130;-2.040;2023-03-14T06:12:30;3.08;;;0.82;;
61397;SDS011;47267;48.130;-2.040;2023-03-14T06:14:56;4.38;;;1.15;;
61397;SDS011;47267;48.130;-2.040;2023-03-14T06:17:22;4.70;;;1.08;;
61397;SDS011;47267;48.130;-2.040;2023-03-14T06:19:47;3.83;;;0.95;;
61397;SDS011;47267;48.130;-2.040;2023-03-14T06:22:13;3.47;;;1.10;;
61397;SDS011;47267;48.130;-2.040;2023-03-14T06:24:39;3.83;;;1.00;;
61397;SDS011;47267;48.130;-2.040;2023-03-14T06:27:04;5.05;;;1.27;;
61397;SDS011;47267;48.130;-2.040;2023-03-14T06:29:30;4.72;;;1.17;;
61397;SDS011;47267;48.130;-2.040;2023-03-14T06:31:56;3.50;;;1.20;;
61397;SDS011;47267;48.130;-2.040;2023-03-14T06:34:21;4.25;;;1.00;;
61397;SDS011;47267;48.130;-2.040;2023-03-14T06:36:47;7.53;;;1.20;;
61397;SDS011;47267;48.130;-2.040;2023-03-14T06:39:13;3.53;;;0.95;;
61397;SDS011;47267;48.130;-2.040;2023-03-14T06:41:39;5.72;;;1.50;;
61397;SDS011;47267;48.130;-2.040;2023-03-14T06:44:05;6.93;;;1.45;;
61397;SDS011;47267;48.130;-2.040;2023-03-14T06:46:30;4.65;;;1.63;;
61397;SDS011;47267;48.130;-2.040;2023-03-14T06:48:56;7.72;;;1.73;;
61397;SDS011;47267;48.130;-2.040;2023-03-14T06:51:22;5.32;;;1.40;;
61397;SDS011;47267;48.130;-2.040;2023-03-14T06:53:48;8.70;;;1.80;;
61397;SDS011;47267;48.130;-2.040;2023-03-14T06:56:13;6.07;;;1.45;;
61397;SDS011;47267;48.130;-2.040;2023-03-14T06:58:39;9.88;;;2.28;;
61397;SDS011;47267;48.130;-2.040;2023-03-14T07:01:05;3.75;;;1.30;;
61397;SDS011;47267;48.130;-2.040;2023-03-14T07:03:32;6.45;;;1.65;;
61397;SDS011;47267;48.130;-2.040;2023-03-14T07:05:57;5.07;;;1.65;;
61397;SDS011;47267;48.130;-2.040;2023-03-14T07:08:24;5.55;;;1.77;;
61397;SDS011;47267;48.130;-2.040;2023-03-14T07:10:49;6.25;;;1.52;;
61397;SDS011;47267;48.130;-2.040;2023-03-14T07:13:16;3.22;;;1.40;;
61397;SDS011;47267;48.130;-2.040;2023-03-14T07:15:42;4.63;;;1.55;;
61397;SDS011;47267;48.130;-2.040;2023-03-14T07:18:08;7.00;;;1.73;;
61397;SDS011;47267;48.130;-2.040;2023-03-14T07:20:33;5.90;;;1.60;;
61397;SDS011;47267;48.130;-2.040;2023-03-14T07:22:59;3.90;;;1.05;;
61397;SDS011;47267;48.130;-2.040;2023-03-14T07:25:25;7.15;;;1.70;;
61397;SDS011;47267;48.130;-2.040;2023-03-14T07:27:51;3.88;;;1.10;;
61397;SDS011;47267;48.130;-2.040;2023-03-14T07:30:17;7.43;;;2.00;;
61397;SDS011;47267;48.130;-2.040;2023-03-14T07:32:43;4.93;;;1.50;;
61397;SDS011;47267;48.130;-2.040;2023-03-14T07:35:08;5.45;;;1.70;;
61397;SDS011;47267;48.130;-2.040;2023-03-14T07:37:34;6.25;;;1.60;;
61397;SDS011;47267;48.130;-2.040;2023-03-14T07:40:00;6.90;;;1.50;;
61397;SDS011;47267;48.130;-2.040;2023-03-14T07:42:25;7.10;;;1.40;;
61397;SDS011;47267;48.130;-2.040;2023-03-14T07:44:51;5.30;;;1.60;;
61397;SDS011;47267;48.130;-2.040;2023-03-14T07:47:17;5.35;;;1.63;;
61397;SDS011;47267;48.130;-2.040;2023-03-14T07:49:42;6.72;;;1.77;;
61397;SDS011;47267;48.130;-2.040;2023-03-14T07:52:08;4.15;;;1.10;;
61397;SDS011;47267;48.130;-2.040;2023-03-14T07:54:34;4.03;;;1.35;;
61397;SDS011;47267;48.130;-2.040;2023-03-14T07:56:59;4.68;;;1.80;;
61397;SDS011;47267;48.130;-2.040;2023-03-14T07:59:26;5.05;;;1.70;;
61397;SDS011;47267;48.130;-2.040;2023-03-14T08:01:52;3.95;;;1.30;;
61397;SDS011;47267;48.130;-2.040;2023-03-14T08:04:18;5.95;;;1.20;;
61397;SDS011;47267;48.130;-2.040;2023-03-14T08:06:43;3.53;;;1.27;;
61397;SDS011;47267;48.130;-2.040;2023-03-14T08:09:09;4.13;;;1.60;;
61397;SDS011;47267;48.130;-2.040;2023-03-14T08:11:35;3.70;;;1.23;;
61397;SDS011;47267;48.130;-2.040;2023-03-14T08:14:01;4.95;;;1.75;;
61397;SDS011;47267;48.130;-2.040;2023-03-14T08:16:27;4.75;;;1.48;;
61397;SDS011;47267;48.130;-2.040;2023-03-14T08:18:52;4.15;;;1.30;;
61397;SDS011;47267;48.130;-2.040;2023-03-14T08:21:18;3.88;;;1.10;;
61397;SDS011;47267;48.130;-2.040;2023-03-14T08:23:44;4.72;;;1.10;;
61397;SDS011;47267;48.130;-2.040;2023-03-14T08:26:10;3.60;;;1.50;;
61397;SDS011;47267;48.130;-2.040;2023-03-14T08:28:35;4.57;;;1.50;;
61397;SDS011;47267;48.130;-2.040;2023-03-14T08:31:01;5.85;;;1.60;;
61397;SDS011;47267;48.130;-2.040;2023-03-14T08:33:28;4.28;;;1.25;;
61397;SDS011;47267;48.130;-2.040;2023-03-14T08:35:55;5.47;;;1.50;;
61397;SDS011;47267;48.130;-2.040;2023-03-14T08:38:21;4.78;;;1.50;;
61397;SDS011;47267;48.130;-2.040;2023-03-14T08:40:47;4.10;;;1.25;;
61397;SDS011;47267;48.130;-2.040;2023-03-14T08:43:17;4.38;;;1.30;;
61397;SDS011;47267;48.130;-2.040;2023-03-14T08:45:46;4.78;;;1.42;;
61397;SDS011;47267;48.130;-2.040;2023-03-14T08:48:12;4.85;;;1.25;;
61397;SDS011;47267;48.130;-2.040;2023-03-14T08:50:37;4.80;;;1.55;;
61397;SDS011;47267;48.130;-2.040;2023-03-14T08:53:03;5.70;;;1.50;;
61397;SDS011;47267;48.130;-2.040;2023-03-14T08:55:29;3.03;;;1.13;;
61397;SDS011;47267;48.130;-2.040;2023-03-14T08:57:54;3.78;;;1.33;;
61397;SDS011;47267;48.130;-2.040;2023-03-14T09:00:20;3.70;;;1.30;;
61397;SDS011;47267;48.130;-2.040;2023-03-14T09:02:46;4.60;;;1.30;;
61397;SDS011;47267;48.130;-2.040;2023-03-14T09:05:12;5.25;;;1.42;;
61397;SDS011;47267;48.130;-2.040;2023-03-14T09:07:38;4.72;;;1.52;;
61397;SDS011;47267;48.130;-2.040;2023-03-14T09:10:05;4.88;;;1.38;;
61397;SDS011;47267;48.130;-2.040;2023-03-14T09:12:31;2.97;;;1.10;;
61397;SDS011;47267;48.130;-2.040;2023-03-14T09:14:57;3.22;;;1.20;;
61397;SDS011;47267;48.130;-2.040;2023-03-14T09:17:23;3.13;;;1.30;;
61397;SDS011;47267;48.130;-2.040;2023-03-14T09:19:49;3.83;;;1.48;;
61397;SDS011;47267;48.130;-2.040;2023-03-14T09:22:14;2.97;;;1.30;;
61397;SDS011;47267;48.130;-2.040;2023-03-14T09:24:41;2.90;;;0.93;;
61397;SDS011;47267;48.130;-2.040;2023-03-14T09:27:07;6.07;;;1.20;;
61397;SDS011;47267;48.130;-2.040;2023-03-14T09:29:33;3.10;;;0.90;;
61397;SDS011;47267;48.130;-2.040;2023-03-14T09:31:58;3.53;;;1.17;;
61397;SDS011;47267;48.130;-2.040;2023-03-14T09:34:25;3.72;;;1.05;;
61397;SDS011;47267;48.130;-2.040;2023-03-14T09:36:50;4.85;;;1.45;;
61397;SDS011;47267;48.130;-2.040;2023-03-14T09:39:16;4.18;;;1.27;;
61397;SDS011;47267;48.130;-2.040;2023-03-14T09:41:43;4.70;;;1.17;;
61397;SDS011;47267;48.130;-2.040;2023-03-14T09:44:15;3.80;;;1.05;;
61397;SDS011;47267;48.130;-2.040;2023-03-14T09:46:45;5.47;;;1.35;;
61397;SDS011;47267;48.130;-2.040;2023-03-14T09:49:35;3.50;;;1.10;;
61397;SDS011;47267;48.130;-2.040;2023-03-14T09:52:05;4.18;;;1.23;;
61397;SDS011;47267;48.130;-2.040;2023-03-14T09:54:52;5.13;;;1.40;;
61397;SDS011;47267;48.130;-2.040;2023-03-14T09:57:23;5.05;;;1.35;;
61397;SDS011;47267;48.130;-2.040;2023-03-14T09:59:50;5.15;;;1.50;;
61397;SDS011;47267;48.130;-2.040;2023-03-14T10:02:23;4.15;;;1.30;;
61397;SDS011;47267;48.130;-2.040;2023-03-14T10:04:51;3.42;;;1.20;;
61397;SDS011;47267;48.130;-2.040;2023-03-14T10:07:27;3.78;;;1.20;;
61397;SDS011;47267;48.130;-2.040;2023-03-14T10:09:54;4.90;;;1.27;;
61397;SDS011;47267;48.130;-2.040;2023-03-14T10:12:20;3.47;;;1.25;;
61397;SDS011;47267;48.130;-2.040;2023-03-14T10:15:02;3.28;;;1.05;;
61397;SDS011;47267;48.130;-2.040;2023-03-14T10:17:37;3.33;;;0.98;;
61397;SDS011;47267;48.130;-2.040;2023-03-14T10:20:25;6.72;;;1.20;;
61397;SDS011;47267;48.130;-2.040;2023-03-14T10:23:03;3.95;;;1.25;;
61397;SDS011;47267;48.130;-2.040;2023-03-14T10:25:32;4.72;;;1.27;;
61397;SDS011;47267;48.130;-2.040;2023-03-14T10:28:00;3.33;;;0.90;;
61397;SDS011;47267;48.130;-2.040;2023-03-14T10:33:19;4.07;;;1.30;;
61397;SDS011;47267;48.130;-2.040;2023-03-14T10:38:42;3.65;;;0.95;;
61397;SDS011;47267;48.130;-2.040;2023-03-14T10:41:24;3.42;;;1.30;;
61397;SDS011;47267;48.130;-2.040;2023-03-14T10:43:52;4.60;;;1.10;;
61397;SDS011;47267;48.130;-2.040;2023-03-14T10:48:49;3.33;;;1.00;;
61397;SDS011;47267;48.130;-2.040;2023-03-14T10:53:43;3.72;;;1.20;;
61397;SDS011;47267;48.130;-2.040;2023-03-14T10:56:17;3.28;;;1.30;;
61397;SDS011;47267;48.130;-2.040;2023-03-14T10:58:45;3.20;;;1.20;;
61397;SDS011;47267;48.130;-2.040;2023-03-14T11:03:56;4.10;;;1.10;;
61397;SDS011;47267;48.130;-2.040;2023-03-14T11:06:36;3.33;;;1.08;;
61397;SDS011;47267;48.130;-2.040;2023-03-14T11:15:11;2.78;;;1.00;;
61397;SDS011;47267;48.130;-2.040;2023-03-14T11:26:01;3.30;;;1.00;;
61397;SDS011;47267;48.130;-2.040;2023-03-14T11:28:49;3.67;;;1.13;;
61397;SDS011;47267;48.130;-2.040;2023-03-14T11:36:21;3.20;;;1.08;;
61397;SDS011;47267;48.130;-2.040;2023-03-14T11:38:58;5.68;;;1.42;;
61397;SDS011;47267;48.130;-2.040;2023-03-14T11:43:54;4.00;;;1.15;;
61397;SDS011;47267;48.130;-2.040;2023-03-14T11:46:22;3.83;;;1.15;;
61397;SDS011;47267;48.130;-2.040;2023-03-14T11:49:12;3.47;;;1.25;;
61397;SDS011;47267;48.130;-2.040;2023-03-14T11:51:55;2.80;;;1.15;;
61397;SDS011;47267;48.130;-2.040;2023-03-14T11:57:04;2.25;;;0.82;;
61397;SDS011;47267;48.130;-2.040;2023-03-14T11:59:42;5.00;;;1.40;;
61397;SDS011;47267;48.130;-2.040;2023-03-14T12:02:20;4.60;;;1.33;;
61397;SDS011;47267;48.130;-2.040;2023-03-14T12:04:50;3.45;;;1.38;;
61397;SDS011;47267;48.130;-2.040;2023-03-14T12:10:18;2.92;;;0.85;;
61397;SDS011;47267;48.130;-2.040;2023-03-14T12:12:44;2.85;;;1.08;;
61397;SDS011;47267;48.130;-2.040;2023-03-14T12:15:18;3.20;;;0.85;;
61397;SDS011;47267;48.130;-2.040;2023-03-14T12:17:46;3.08;;;0.95;;
61397;SDS011;47267;48.130;-2.040;2023-03-14T12:20:18;3.30;;;0.98;;
61397;SDS011;47267;48.130;-2.040;2023-03-14T12:22:56;4.45;;;1.30;;
61397;SDS011;47267;48.130;-2.040;2023-03-14T12:25:32;4.15;;;1.00;;
61397;SDS011;47267;48.130;-2.040;2023-03-14T12:28:16;3.50;;;1.13;;
61397;SDS011;47267;48.130;-2.040;2023-03-14T12:30:45;4.15;;;1.13;;
61397;SDS011;47267;48.130;-2.040;2023-03-14T12:35:44;3.72;;;1.27;;
61397;SDS011;47267;48.130;-2.040;2023-03-14T12:41:00;3.25;;;0.82;;
61397;SDS011;47267;48.130;-2.040;2023-03-14T12:43:31;4.15;;;1.00;;
61397;SDS011;47267;48.130;-2.040;2023-03-14T12:48:43;2.75;;;0.90;;
61397;SDS011;47267;48.130;-2.040;2023-03-14T12:51:14;4.50;;;1.33;;
61397;SDS011;47267;48.130;-2.040;2023-03-14T12:59:35;4.55;;;1.13;;
61397;SDS011;47267;48.130;-2.040;2023-03-14T13:05:28;4.55;;;1.20;;
61397;SDS011;47267;48.130;-2.040;2023-03-14T13:13:02;2.97;;;0.80;;
61397;SDS011;47267;48.130;-2.040;2023-03-14T13:15:48;4.20;;;1.00;;
61397;SDS011;47267;48.130;-2.040;2023-03-14T13:21:02;3.10;;;1.20;;
61397;SDS011;47267;48.130;-2.040;2023-03-14T13:23:29;2.58;;;0.98;;
61397;SDS011;47267;48.130;-2.040;2023-03-14T13:25:56;5.22;;;1.00;;
61397;SDS011;47267;48.130;-2.040;2023-03-14T13:28:24;3.25;;;1.20;;
61397;SDS011;47267;48.130;-2.040;2023-03-14T13:30:54;2.83;;;0.90;;
61397;SDS011;47267;48.130;-2.040;2023-03-14T13:33:22;3.25;;;0.70;;
61397;SDS011;47267;48.130;-2.040;2023-03-14T13:35:53;4.57;;;1.20;;
61397;SDS011;47267;48.130;-2.040;2023-03-14T13:38:21;4.22;;;1.20;;
61397;SDS011;47267;48.130;-2.040;2023-03-14T13:40:49;3.88;;;1.23;;
61397;SDS011;47267;48.130;-2.040;2023-03-14T13:43:29;2.58;;;1.02;;
61397;SDS011;47267;48.130;-2.040;2023-03-14T13:46:04;2.58;;;0.80;;
61397;SDS011;47267;48.130;-2.040;2023-03-14T13:48:33;3.17;;;1.10;;
61397;SDS011;47267;48.130;-2.040;2023-03-14T13:51:11;2.47;;;0.85;;
61397;SDS011;47267;48.130;-2.040;2023-03-14T13:53:46;2.75;;;1.10;;
61397;SDS011;47267;48.130;-2.040;2023-03-14T13:56:17;2.22;;;0.63;;
61397;SDS011;47267;48.130;-2.040;2023-03-14T13:58:44;2.72;;;0.90;;
61397;SDS011;47267;48.130;-2.040;2023-03-14T14:01:17;3.42;;;0.80;;
61397;SDS011;47267;48.130;-2.040;2023-03-14T14:03:52;3.17;;;0.90;;
61397;SDS011;47267;48.130;-2.040;2023-03-14T14:06:25;3.38;;;1.30;;
61397;SDS011;47267;48.130;-2.040;2023-03-14T14:08:58;4.03;;;0.90;;
61397;SDS011;47267;48.130;-2.040;2023-03-14T14:11:32;3.25;;;1.00;;
61397;SDS011;47267;48.130;-2.040;2023-03-14T14:14:04;4.40;;;0.82;;
61397;SDS011;47267;48.130;-2.040;2023-03-14T14:16:34;3.15;;;0.93;;
61397;SDS011;47267;48.130;-2.040;2023-03-14T14:19:00;3.78;;;1.20;;
61397;SDS011;47267;48.130;-2.040;2023-03-14T14:21:27;4.18;;;1.02;;
61397;SDS011;47267;48.130;-2.040;2023-03-14T14:23:53;3.15;;;1.05;;
61397;SDS011;47267;48.130;-2.040;2023-03-14T14:26:19;4.07;;;1.30;;
61397;SDS011;47267;48.130;-2.040;2023-03-14T14:28:45;3.83;;;1.30;;
61397;SDS011;47267;48.130;-2.040;2023-03-14T14:33:41;3.80;;;1.20;;
61397;SDS011;47267;48.130;-2.040;2023-03-14T14:36:24;4.63;;;1.20;;
61397;SDS011;47267;48.130;-2.040;2023-03-14T14:38:51;2.83;;;1.15;;
61397;SDS011;47267;48.130;-2.040;2023-03-14T14:41:19;2.30;;;0.90;;
61397;SDS011;47267;48.130;-2.040;2023-03-14T14:43:45;4.28;;;1.10;;
61397;SDS011;47267;48.130;-2.040;2023-03-14T14:46:17;3.22;;;0.90;;
61397;SDS011;47267;48.130;-2.040;2023-03-14T14:48:44;3.25;;;0.93;;
61397;SDS011;47267;48.130;-2.040;2023-03-14T14:51:21;3.50;;;1.05;;
61397;SDS011;47267;48.130;-2.040;2023-03-14T14:53:49;4.50;;;1.00;;
61397;SDS011;47267;48.130;-2.040;2023-03-14T14:56:26;3.38;;;0.80;;
61397;SDS011;47267;48.130;-2.040;2023-03-14T14:58:57;3.42;;;1.08;;
61397;SDS011;47267;48.130;-2.040;2023-03-14T15:01:24;2.17;;;0.95;;
61397;SDS011;47267;48.130;-2.040;2023-03-14T15:03:55;2.95;;;0.80;;
61397;SDS011;47267;48.130;-2.040;2023-03-14T15:06:21;2.72;;;0.80;;
61397;SDS011;47267;48.130;-2.040;2023-03-14T15:08:53;4.45;;;1.05;;
61397;SDS011;47267;48.130;-2.040;2023-03-14T15:11:20;2.90;;;0.88;;
61397;SDS011;47267;48.130;-2.040;2023-03-14T15:13:50;2.13;;;0.65;;
61397;SDS011;47267;48.130;-2.040;2023-03-14T15:16:17;4.05;;;0.90;;
61397;SDS011;47267;48.130;-2.040;2023-03-14T15:18:47;2.35;;;0.95;;
61397;SDS011;47267;48.130;-2.040;2023-03-14T15:21:20;3.00;;;0.98;;
61397;SDS011;47267;48.130;-2.040;2023-03-14T15:23:46;3.60;;;0.90;;
61397;SDS011;47267;48.130;-2.040;2023-03-14T15:26:13;3.20;;;1.02;;
61397;SDS011;47267;48.130;-2.040;2023-03-14T15:28:42;2.83;;;0.93;;
61397;SDS011;47267;48.130;-2.040;2023-03-14T15:31:08;5.28;;;1.08;;
61397;SDS011;47267;48.130;-2.040;2023-03-14T15:33:36;1.65;;;0.80;;
61397;SDS011;47267;48.130;-2.040;2023-03-14T15:36:03;3.53;;;1.00;;
61397;SDS011;47267;48.130;-2.040;2023-03-14T15:38:29;2.55;;;0.65;;
61397;SDS011;47267;48.130;-2.040;2023-03-14T15:40:55;3.55;;;1.10;;
61397;SDS011;47267;48.130;-2.040;2023-03-14T15:43:20;3.28;;;0.90;;
61397;SDS011;47267;48.130;-2.040;2023-03-14T15:45:46;2.92;;;1.00;;
61397;SDS011;47267;48.130;-2.040;2023-03-14T15:48:16;2.58;;;0.90;;
61397;SDS011;47267;48.130;-2.040;2023-03-14T15:50:43;2.22;;;0.80;;
61397;SDS011;47267;48.130;-2.040;2023-03-14T15:53:10;2.80;;;0.85;;
61397;SDS011;47267;48.130;-2.040;2023-03-14T15:55:36;2.35;;;0.93;;
61397;SDS011;47267;48.130;-2.040;2023-03-14T15:58:02;4.07;;;0.90;;